Time,TemperatureF,DewpointF,PressureIn,WindDirection,WindDirectionDegrees,WindSpeedMPH,WindSpeedGustMPH,Humidity,HourlyPrecipIn,Conditions,Clouds,dailyrainin,SoftwareType,DateUTC
2013-01-05 00:00:00,23.3,16.9,30.15,West,260,3.6,5.6,76,0.00,,---,0.00,VWS V14.01,2013-01-05 05:00:00,
2013-01-05 00:02:00,23.3,16.9,30.15,SW,215,4.3,5.6,76,0.00,,---,0.00,VWS V14.01,2013-01-05 05:02:00,
2013-01-05 00:03:00,23.3,16.9,30.15,SW,215,4.6,4.6,76,0.00,,---,0.00,VWS V14.01,2013-01-05 05:03:00,
2013-01-05 00:05:00,23.1,16.7,30.15,SW,215,4.0,4.6,76,0.00,,---,0.00,VWS V14.01,2013-01-05 05:05:00,
2013-01-05 00:10:00,23.1,16.7,30.15,SW,215,7.3,7.3,76,0.00,,---,0.00,VWS V14.01,2013-01-05 05:10:00,
2013-01-05 00:15:00,22.9,16.5,30.15,WSW,238,4.0,6.0,76,0.00,,---,0.00,VWS V14.01,2013-01-05 05:15:00,
2013-01-05 00:20:00,22.9,16.5,30.15,SW,215,4.0,4.0,76,0.00,,---,0.00,VWS V14.01,2013-01-05 05:20:00,
2013-01-05 00:25:00,22.9,16.8,30.15,SW,215,3.3,6.3,77,0.00,,---,0.00,VWS V14.01,2013-01-05 05:25:00,
2013-01-05 00:30:00,22.9,16.8,30.15,SW,215,2.3,3.6,77,0.00,,---,0.00,VWS V14.01,2013-01-05 05:30:00,
2013-01-05 00:35:00,22.6,16.5,30.15,West,260,0.0,3.3,77,0.00,,---,0.00,VWS V14.01,2013-01-05 05:35:00,
2013-01-05 00:40:00,22.6,16.5,30.15,SW,215,4.3,4.3,77,0.00,,---,0.00,VWS V14.01,2013-01-05 05:40:00,
2013-01-05 00:45:00,22.4,16.3,30.15,South,170,3.6,3.6,77,0.00,,---,0.00,VWS V14.01,2013-01-05 05:45:00,
2013-01-05 00:50:00,22.4,16.3,30.15,SW,215,4.3,4.3,77,0.00,,---,0.00,VWS V14.01,2013-01-05 05:50:00,
2013-01-05 00:55:00,22.2,16.1,30.15,SW,215,4.0,4.0,77,0.00,,---,0.00,VWS V14.01,2013-01-05 05:55:00,
2013-01-05 01:00:00,22.2,16.1,30.15,SW,215,4.3,4.3,77,0.00,,---,0.00,VWS V14.01,2013-01-05 06:00:00,
2013-01-05 01:05:00,22.2,16.1,30.15,SW,215,4.0,5.0,77,0.00,,---,0.00,VWS V14.01,2013-01-05 06:05:00,
2013-01-05 01:10:00,22.2,16.1,30.15,SW,215,4.0,4.0,77,0.00,,---,0.00,VWS V14.01,2013-01-05 06:10:00,
2013-01-05 01:15:00,22.4,16.3,30.18,SW,215,2.0,3.0,77,0.00,,---,0.00,VWS V14.01,2013-01-05 06:15:00,
2013-01-05 01:20:00,22.6,16.5,30.18,WSW,238,3.6,6.0,77,0.00,,---,0.00,VWS V14.01,2013-01-05 06:20:00,
2013-01-05 01:25:00,22.8,16.6,30.18,SW,215,3.0,3.6,77,0.00,,---,0.00,VWS V14.01,2013-01-05 06:25:00,
2013-01-05 01:30:00,22.8,16.6,30.18,SW,215,2.3,3.3,77,0.00,,---,0.00,VWS V14.01,2013-01-05 06:30:00,
2013-01-05 01:35:00,22.9,16.8,30.18,SW,215,3.0,4.3,77,0.00,,---,0.00,VWS V14.01,2013-01-05 06:35:00,
2013-01-05 01:40:00,22.9,17.1,30.18,WSW,238,6.3,6.3,78,0.00,,---,0.00,VWS V14.01,2013-01-05 06:40:00,
2013-01-05 01:46:00,23.1,17.3,30.18,SW,215,3.3,4.3,78,0.00,,---,0.00,VWS V14.01,2013-01-05 06:46:00,
2013-01-05 01:51:00,23.1,17.3,30.18,SW,215,5.6,5.6,78,0.00,,---,0.00,VWS V14.01,2013-01-05 06:51:00,
2013-01-05 01:56:00,23.1,17.3,30.18,SW,215,4.0,4.0,78,0.00,,---,0.00,VWS V14.01,2013-01-05 06:56:00,
2013-01-05 02:01:00,23.3,17.8,30.18,SW,215,7.3,7.3,79,0.00,,---,0.00,VWS V14.01,2013-01-05 07:01:00,
2013-01-05 02:06:00,23.5,17.9,30.18,SW,215,4.6,6.0,79,0.00,,---,0.00,VWS V14.01,2013-01-05 07:06:00,
2013-01-05 02:11:00,23.5,17.9,30.18,SW,215,5.3,8.3,79,0.00,,---,0.00,VWS V14.01,2013-01-05 07:11:00,
2013-01-05 02:16:00,23.7,18.1,30.18,SW,215,6.3,6.3,79,0.00,,---,0.00,VWS V14.01,2013-01-05 07:16:00,
2013-01-05 02:21:00,23.7,18.1,30.18,West,260,5.6,6.3,79,0.00,,---,0.00,VWS V14.01,2013-01-05 07:21:00,
2013-01-05 02:26:00,23.8,18.3,30.18,SW,215,5.0,5.0,79,0.00,,---,0.00,VWS V14.01,2013-01-05 07:26:00,
2013-01-05 02:31:00,23.8,18.3,30.18,SW,215,4.3,7.3,79,0.00,,---,0.00,VWS V14.01,2013-01-05 07:31:00,
2013-01-05 02:36:00,23.8,18.3,30.18,WSW,238,4.0,4.0,79,0.00,,---,0.00,VWS V14.01,2013-01-05 07:36:00,
2013-01-05 02:41:00,23.8,18.3,30.18,NW,305,0.0,2.0,79,0.00,,---,0.00,VWS V14.01,2013-01-05 07:41:00,
2013-01-05 02:46:00,23.5,17.9,30.18,SW,215,1.7,4.6,79,0.00,,---,0.00,VWS V14.01,2013-01-05 07:46:00,
2013-01-05 02:51:00,23.5,17.9,30.18,West,260,3.6,3.6,79,0.00,,---,0.00,VWS V14.01,2013-01-05 07:51:00,
2013-01-05 02:56:00,23.3,17.8,30.18,West,260,3.3,3.3,79,0.00,,---,0.00,VWS V14.01,2013-01-05 07:56:00,
2013-01-05 03:01:00,22.9,17.4,30.18,SW,215,0.0,0.0,79,0.00,,---,0.00,VWS V14.01,2013-01-05 08:01:00,
2013-01-05 03:06:00,22.4,16.9,30.18,SE,125,0.0,0.0,79,0.00,,---,0.00,VWS V14.01,2013-01-05 08:06:00,
2013-01-05 03:11:00,22.2,16.7,30.18,SE,125,0.0,0.0,79,0.00,,---,0.00,VWS V14.01,2013-01-05 08:11:00,
2013-01-05 03:16:00,22.0,16.5,30.18,SE,125,0.0,0.0,79,0.00,,---,0.00,VWS V14.01,2013-01-05 08:16:00,
2013-01-05 03:21:00,21.9,16.4,30.18,SE,125,0.0,0.0,79,0.00,,---,0.00,VWS V14.01,2013-01-05 08:21:00,
2013-01-05 03:26:00,21.7,15.9,30.18,SW,215,0.0,0.0,78,0.00,,---,0.00,VWS V14.01,2013-01-05 08:26:00,
2013-01-05 03:31:00,21.1,15.4,30.18,SW,215,0.0,0.0,78,0.00,,---,0.00,VWS V14.01,2013-01-05 08:31:00,
2013-01-05 03:36:00,21.1,15.4,30.18,West,260,0.0,2.3,78,0.00,,---,0.00,VWS V14.01,2013-01-05 08:36:00,
2013-01-05 03:41:00,21.0,15.2,30.18,SW,215,2.3,2.3,78,0.00,,---,0.00,VWS V14.01,2013-01-05 08:41:00,
2013-01-05 03:47:00,21.0,15.2,30.18,SW,215,2.0,2.3,78,0.00,,---,0.00,VWS V14.01,2013-01-05 08:47:00,
2013-01-05 03:52:00,20.6,15.1,30.18,SW,215,2.3,2.3,79,0.00,,---,0.00,VWS V14.01,2013-01-05 08:52:00,
2013-01-05 03:57:00,20.4,15.0,30.18,SW,215,0.0,0.0,79,0.00,,---,0.00,VWS V14.01,2013-01-05 08:57:00,
2013-01-05 04:02:00,20.2,14.8,30.18,ESE,102,0.0,1.3,79,0.00,,---,0.00,VWS V14.01,2013-01-05 09:02:00,
2013-01-05 04:07:00,20.1,14.9,30.18,SE,125,0.0,0.0,80,0.00,,---,0.00,VWS V14.01,2013-01-05 09:07:00,
2013-01-05 04:12:00,20.1,14.9,30.18,South,170,0.0,0.0,80,0.00,,---,0.00,VWS V14.01,2013-01-05 09:12:00,
2013-01-05 04:17:00,19.7,14.3,30.18,SW,215,3.6,3.6,79,0.00,,---,0.00,VWS V14.01,2013-01-05 09:17:00,
2013-01-05 04:22:00,19.3,13.9,30.18,South,170,4.3,4.3,79,0.00,,---,0.00,VWS V14.01,2013-01-05 09:22:00,
2013-01-05 04:27:00,19.9,14.7,30.18,South,170,1.3,3.0,80,0.00,,---,0.00,VWS V14.01,2013-01-05 09:27:00,
2013-01-05 04:32:00,20.2,15.1,30.18,South,170,0.0,0.0,80,0.00,,---,0.00,VWS V14.01,2013-01-05 09:32:00,
2013-01-05 04:37:00,19.9,14.4,30.18,SW,215,5.0,5.0,79,0.00,,---,0.00,VWS V14.01,2013-01-05 09:37:00,
2013-01-05 04:42:00,20.4,15.2,30.18,South,170,5.0,5.0,80,0.00,,---,0.00,VWS V14.01,2013-01-05 09:42:00,
2013-01-05 04:47:00,20.6,15.4,30.18,SW,215,2.3,7.9,80,0.00,,---,0.00,VWS V14.01,2013-01-05 09:47:00,
2013-01-05 04:52:00,20.6,15.7,30.18,West,260,5.0,5.0,81,0.00,,---,0.00,VWS V14.01,2013-01-05 09:52:00,
2013-01-05 04:57:00,20.6,15.7,30.18,South,170,4.0,4.0,81,0.00,,---,0.00,VWS V14.01,2013-01-05 09:57:00,
2013-01-05 05:02:00,20.6,15.7,30.18,South,170,0.0,0.0,81,0.00,,---,0.00,VWS V14.01,2013-01-05 10:02:00,
2013-01-05 05:07:00,20.6,15.7,30.18,South,170,2.3,3.6,81,0.00,,---,0.00,VWS V14.01,2013-01-05 10:07:00,
2013-01-05 05:12:00,20.4,15.5,30.18,SW,215,3.6,3.6,81,0.00,,---,0.00,VWS V14.01,2013-01-05 10:12:00,
2013-01-05 05:17:00,20.4,15.5,30.18,SW,215,5.3,5.3,81,0.00,,---,0.00,VWS V14.01,2013-01-05 10:17:00,
2013-01-05 05:22:00,20.4,15.5,30.18,SW,215,3.6,4.3,81,0.00,,---,0.00,VWS V14.01,2013-01-05 10:22:00,
2013-01-05 05:27:00,20.6,15.7,30.18,SW,215,4.0,4.0,81,0.00,,---,0.00,VWS V14.01,2013-01-05 10:27:00,
2013-01-05 05:33:00,20.8,15.6,30.21,SW,215,3.0,4.0,80,0.00,,---,0.00,VWS V14.01,2013-01-05 10:33:00,
2013-01-05 05:38:00,21.0,16.1,30.21,SW,215,2.3,5.0,81,0.00,,---,0.00,VWS V14.01,2013-01-05 10:38:00,
2013-01-05 05:43:00,21.1,16.2,30.21,SW,215,4.6,4.6,81,0.00,,---,0.00,VWS V14.01,2013-01-05 10:43:00,
2013-01-05 05:48:00,21.3,16.4,30.18,South,170,3.6,3.6,81,0.00,,---,0.00,VWS V14.01,2013-01-05 10:48:00,
2013-01-05 05:53:00,21.5,16.6,30.18,West,260,0.0,2.0,81,0.00,,---,0.00,VWS V14.01,2013-01-05 10:53:00,
2013-01-05 05:58:00,21.5,16.6,30.18,South,170,0.0,0.0,81,0.00,,---,0.00,VWS V14.01,2013-01-05 10:58:00,
2013-01-05 06:03:00,21.5,16.6,30.18,South,170,3.0,3.0,81,0.00,,---,0.00,VWS V14.01,2013-01-05 11:03:00,
2013-01-05 06:08:00,21.5,16.6,30.18,SE,125,0.0,0.0,81,0.00,,---,0.00,VWS V14.01,2013-01-05 11:08:00,
2013-01-05 06:13:00,21.5,16.6,30.18,SE,125,0.0,0.0,81,0.00,,---,0.00,VWS V14.01,2013-01-05 11:13:00,
2013-01-05 06:18:00,21.3,16.4,30.18,South,170,2.3,2.3,81,0.00,,---,0.00,VWS V14.01,2013-01-05 11:18:00,
2013-01-05 06:23:00,21.1,16.2,30.18,South,170,2.3,3.3,81,0.00,,---,0.00,VWS V14.01,2013-01-05 11:23:00,
2013-01-05 06:28:00,21.0,16.1,30.18,South,170,0.0,3.6,81,0.00,,---,0.00,VWS V14.01,2013-01-05 11:28:00,
2013-01-05 06:33:00,20.8,15.6,30.18,South,170,1.7,1.7,80,0.00,,---,0.00,VWS V14.01,2013-01-05 11:33:00,
2013-01-05 06:38:00,20.6,15.4,30.18,South,170,0.0,0.0,80,0.00,,---,0.00,VWS V14.01,2013-01-05 11:38:00,
2013-01-05 06:43:00,20.6,15.4,30.18,South,170,4.0,4.0,80,0.00,,---,0.00,VWS V14.01,2013-01-05 11:43:00,
2013-01-05 06:48:00,20.6,15.4,30.18,South,170,1.7,1.7,80,0.00,,---,0.00,VWS V14.01,2013-01-05 11:48:00,
2013-01-05 06:53:00,20.8,15.6,30.18,South,170,3.6,3.6,80,0.00,,---,0.00,VWS V14.01,2013-01-05 11:53:00,
2013-01-05 06:58:00,20.8,15.6,30.18,SE,125,4.3,4.3,80,0.00,,---,0.00,VWS V14.01,2013-01-05 11:58:00,
2013-01-05 07:04:00,20.8,15.6,30.18,SE,125,1.7,3.6,80,0.00,,---,0.00,VWS V14.01,2013-01-05 12:04:00,
2013-01-05 07:09:00,21.0,15.8,30.18,SE,125,3.6,7.0,80,0.00,,---,0.00,VWS V14.01,2013-01-05 12:09:00,
2013-01-05 07:14:00,21.0,15.8,30.18,SW,215,1.7,1.7,80,0.00,,---,0.00,VWS V14.01,2013-01-05 12:14:00,
2013-01-05 07:19:00,21.0,15.8,30.18,South,170,5.6,6.3,80,0.00,,---,0.00,VWS V14.01,2013-01-05 12:19:00,
2013-01-05 07:24:00,21.0,16.1,30.18,East,80,3.6,3.6,81,0.00,,---,0.00,VWS V14.01,2013-01-05 12:24:00,
2013-01-05 07:29:00,21.1,16.2,30.18,SE,125,5.6,7.3,81,0.00,,---,0.00,VWS V14.01,2013-01-05 12:29:00,
2013-01-05 07:34:00,21.1,16.2,30.18,South,170,0.0,5.0,81,0.00,,---,0.00,VWS V14.01,2013-01-05 12:34:00,
2013-01-05 07:39:00,21.1,16.2,30.18,South,170,6.3,6.3,81,0.00,,---,0.00,VWS V14.01,2013-01-05 12:39:00,
2013-01-05 07:44:00,21.1,16.2,30.18,SW,215,5.0,5.0,81,0.00,,---,0.00,VWS V14.01,2013-01-05 12:44:00,
2013-01-05 07:49:00,21.3,16.4,30.18,SW,215,4.0,5.0,81,0.00,,---,0.00,VWS V14.01,2013-01-05 12:49:00,
2013-01-05 07:54:00,21.3,16.4,30.18,SW,215,0.0,3.6,81,0.00,,---,0.00,VWS V14.01,2013-01-05 12:54:00,
2013-01-05 07:59:00,21.3,16.4,30.18,West,260,4.6,4.6,81,0.00,,---,0.00,VWS V14.01,2013-01-05 12:59:00,
2013-01-05 08:04:00,21.3,16.4,30.18,South,170,3.6,3.6,81,0.00,,---,0.00,VWS V14.01,2013-01-05 13:04:00,
2013-01-05 08:09:00,21.3,16.4,30.18,South,170,0.0,4.3,81,0.00,,---,0.00,VWS V14.01,2013-01-05 13:09:00,
2013-01-05 08:14:00,21.3,16.4,30.18,South,170,1.7,5.3,81,0.00,,---,0.00,VWS V14.01,2013-01-05 13:14:00,
2013-01-05 08:19:00,21.3,16.4,30.18,South,170,3.3,3.3,81,0.00,,---,0.00,VWS V14.01,2013-01-05 13:19:00,
2013-01-05 08:24:00,21.1,16.2,30.18,SE,125,5.0,5.0,81,0.00,,---,0.00,VWS V14.01,2013-01-05 13:24:00,
2013-01-05 08:29:00,21.1,16.2,30.18,South,170,4.3,4.3,81,0.00,,---,0.00,VWS V14.01,2013-01-05 13:29:00,
2013-01-05 08:34:00,21.0,16.1,30.18,SE,125,4.6,5.0,81,0.00,,---,0.00,VWS V14.01,2013-01-05 13:34:00,
2013-01-05 08:40:00,21.0,16.1,30.18,South,170,7.3,7.3,81,0.00,,---,0.00,VWS V14.01,2013-01-05 13:40:00,
2013-01-05 08:45:00,21.0,16.1,30.18,SE,125,5.6,9.6,81,0.00,,---,0.00,VWS V14.01,2013-01-05 13:45:00,
2013-01-05 08:50:00,21.1,16.2,30.18,SE,125,4.3,4.3,81,0.00,,---,0.00,VWS V14.01,2013-01-05 13:50:00,
2013-01-05 08:55:00,21.1,16.2,30.18,South,170,3.0,4.3,81,0.00,,---,0.00,VWS V14.01,2013-01-05 13:55:00,
2013-01-05 09:00:00,21.1,16.2,30.18,South,170,0.0,6.0,81,0.00,,---,0.00,VWS V14.01,2013-01-05 14:00:00,
2013-01-05 09:05:00,21.3,16.4,30.18,South,170,3.0,5.3,81,0.00,,---,0.00,VWS V14.01,2013-01-05 14:05:00,
2013-01-05 09:10:00,21.3,16.4,30.18,ESE,102,4.0,4.3,81,0.00,,---,0.00,VWS V14.01,2013-01-05 14:10:00,
2013-01-05 09:15:00,21.5,16.6,30.18,SE,125,3.0,3.3,81,0.00,,---,0.00,VWS V14.01,2013-01-05 14:15:00,
2013-01-05 09:20:00,21.7,16.8,30.18,South,170,5.6,6.0,81,0.00,,---,0.00,VWS V14.01,2013-01-05 14:20:00,
2013-01-05 09:25:00,21.9,16.9,30.18,SW,215,6.0,6.0,81,0.00,,---,0.00,VWS V14.01,2013-01-05 14:25:00,
2013-01-05 09:30:00,22.0,17.1,30.18,SE,125,5.6,5.6,81,0.00,,---,0.00,VWS V14.01,2013-01-05 14:30:00,
2013-01-05 09:35:00,22.2,17.0,30.18,South,170,6.6,6.6,80,0.00,,---,0.00,VWS V14.01,2013-01-05 14:35:00,
2013-01-05 09:40:00,22.2,17.0,30.18,SE,125,4.0,4.0,80,0.00,,---,0.00,VWS V14.01,2013-01-05 14:40:00,
2013-01-05 09:45:00,22.2,17.0,30.18,SW,215,1.3,7.9,80,0.00,,---,0.00,VWS V14.01,2013-01-05 14:45:00,
2013-01-05 09:50:00,22.6,17.4,30.18,SE,125,3.0,6.0,80,0.00,,---,0.00,VWS V14.01,2013-01-05 14:50:00,
2013-01-05 09:55:00,22.9,17.7,30.18,WNW,282,5.6,5.6,80,0.00,,---,0.00,VWS V14.01,2013-01-05 14:55:00,
2013-01-05 10:00:00,23.3,17.8,30.18,NW,305,2.0,3.6,79,0.00,,---,0.00,VWS V14.01,2013-01-05 15:00:00,
2013-01-05 10:05:00,23.8,18.3,30.18,SE,125,12.6,12.6,79,0.00,,---,0.00,VWS V14.01,2013-01-05 15:05:00,
2013-01-05 10:10:00,24.6,18.7,30.18,SW,215,4.3,6.3,78,0.00,,---,0.00,VWS V14.01,2013-01-05 15:10:00,
2013-01-05 10:15:00,24.7,18.6,30.18,SW,215,6.0,6.0,77,0.00,,---,0.00,VWS V14.01,2013-01-05 15:15:00,
2013-01-05 10:21:00,24.9,18.7,30.18,SW,215,4.0,9.6,77,0.00,,---,0.00,VWS V14.01,2013-01-05 15:21:00,
2013-01-05 10:26:00,25.3,18.5,30.18,South,170,5.3,5.3,75,0.00,,---,0.00,VWS V14.01,2013-01-05 15:26:00,
2013-01-05 10:31:00,25.1,18.3,30.18,SW,215,3.6,7.3,75,0.00,,---,0.00,VWS V14.01,2013-01-05 15:31:00,
2013-01-05 10:36:00,25.1,18.3,30.18,South,170,11.3,11.3,75,0.00,,---,0.00,VWS V14.01,2013-01-05 15:36:00,
2013-01-05 10:41:00,25.3,18.2,30.18,SE,125,8.3,8.3,74,0.00,,---,0.00,VWS V14.01,2013-01-05 15:41:00,
2013-01-05 10:46:00,25.5,18.3,30.18,SW,215,8.3,8.3,74,0.00,,---,0.00,VWS V14.01,2013-01-05 15:46:00,
2013-01-05 10:51:00,25.6,18.2,30.18,SW,215,10.9,10.9,73,0.00,,---,0.00,VWS V14.01,2013-01-05 15:51:00,
2013-01-05 10:56:00,26.0,18.9,30.18,South,170,2.3,2.3,74,0.00,,---,0.00,VWS V14.01,2013-01-05 15:56:00,
2013-01-05 11:01:00,26.4,18.9,30.18,SW,215,7.0,7.0,73,0.00,,---,0.00,VWS V14.01,2013-01-05 16:01:00,
2013-01-05 11:06:00,26.5,18.8,30.18,SW,215,4.0,4.0,72,0.00,,---,0.00,VWS V14.01,2013-01-05 16:06:00,
2013-01-05 11:11:00,26.7,18.6,30.18,SW,215,4.0,5.6,71,0.00,,---,0.00,VWS V14.01,2013-01-05 16:11:00,
2013-01-05 11:16:00,26.9,18.8,30.18,South,170,8.6,8.6,71,0.00,,---,0.00,VWS V14.01,2013-01-05 16:16:00,
2013-01-05 11:21:00,27.3,19.1,30.18,South,170,3.6,7.3,71,0.00,,---,0.00,VWS V14.01,2013-01-05 16:21:00,
2013-01-05 11:26:00,27.6,19.5,30.18,SW,215,4.6,5.3,71,0.00,,---,0.00,VWS V14.01,2013-01-05 16:26:00,
2013-01-05 11:31:00,28.0,19.8,30.15,South,170,7.9,8.6,71,0.00,,---,0.00,VWS V14.01,2013-01-05 16:31:00,
2013-01-05 11:36:00,28.5,20.0,30.15,SW,215,5.6,7.9,70,0.00,,---,0.00,VWS V14.01,2013-01-05 16:36:00,
2013-01-05 11:41:00,29.4,20.5,30.15,West,260,3.6,9.6,69,0.00,,---,0.00,VWS V14.01,2013-01-05 16:41:00,
2013-01-05 11:47:00,30.5,20.9,30.15,SW,215,8.3,8.3,67,0.00,,---,0.00,VWS V14.01,2013-01-05 16:47:00,
2013-01-05 11:52:00,31.4,21.7,30.15,SW,215,7.0,7.0,67,0.00,,---,0.00,VWS V14.01,2013-01-05 16:52:00,
2013-01-05 11:57:00,32.5,22.8,30.15,SE,125,10.3,10.3,67,0.00,,---,0.00,VWS V14.01,2013-01-05 16:57:00,
2013-01-05 12:02:00,33.2,22.4,30.15,South,170,5.3,5.3,64,0.00,,---,0.00,VWS V14.01,2013-01-05 17:02:00,
2013-01-05 12:07:00,33.0,22.2,30.15,West,260,6.3,7.9,64,0.00,,---,0.00,VWS V14.01,2013-01-05 17:07:00,
2013-01-05 12:12:00,33.4,22.2,30.15,SW,215,6.3,6.3,63,0.00,,---,0.00,VWS V14.01,2013-01-05 17:12:00,
2013-01-05 12:17:00,33.6,20.8,30.12,SW,215,5.3,8.9,59,0.00,,---,0.00,VWS V14.01,2013-01-05 17:17:00,
2013-01-05 12:22:00,33.9,21.1,30.12,SW,215,5.6,8.6,59,0.00,,---,0.00,VWS V14.01,2013-01-05 17:22:00,
2013-01-05 12:27:00,33.9,20.7,30.12,SW,215,10.9,10.9,58,0.00,,---,0.00,VWS V14.01,2013-01-05 17:27:00,
2013-01-05 12:32:00,33.9,20.7,30.12,West,260,5.6,5.6,58,0.00,,---,0.00,VWS V14.01,2013-01-05 17:32:00,
2013-01-05 12:37:00,34.5,20.8,30.12,SW,215,8.9,8.9,57,0.00,,---,0.00,VWS V14.01,2013-01-05 17:37:00,
2013-01-05 12:42:00,34.5,20.8,30.12,SW,215,5.3,5.3,57,0.00,,---,0.00,VWS V14.01,2013-01-05 17:42:00,
2013-01-05 12:47:00,34.3,20.2,30.12,SW,215,8.9,12.6,56,0.00,,---,0.00,VWS V14.01,2013-01-05 17:47:00,
2013-01-05 12:52:00,34.3,20.2,30.12,South,170,4.0,4.3,56,0.00,,---,0.00,VWS V14.01,2013-01-05 17:52:00,
2013-01-05 12:57:00,33.6,20.0,30.12,South,170,4.3,4.3,57,0.00,,---,0.00,VWS V14.01,2013-01-05 17:57:00,
2013-01-05 13:02:00,33.4,19.8,30.09,SW,215,3.6,3.6,57,0.00,,---,0.00,VWS V14.01,2013-01-05 18:02:00,
2013-01-05 13:07:00,33.4,19.8,30.09,SW,215,3.6,3.6,57,0.00,,---,0.00,VWS V14.01,2013-01-05 18:07:00,
2013-01-05 13:12:00,33.6,20.4,30.09,WNW,282,4.6,4.6,58,0.00,,---,0.00,VWS V14.01,2013-01-05 18:12:00,
2013-01-05 13:17:00,33.6,20.4,30.09,SE,125,5.0,5.0,58,0.00,,---,0.00,VWS V14.01,2013-01-05 18:17:00,
2013-01-05 13:22:00,33.9,20.7,30.09,SW,215,6.0,6.0,58,0.00,,---,0.00,VWS V14.01,2013-01-05 18:22:00,
2013-01-05 13:27:00,33.9,20.7,30.09,WSW,238,7.3,7.3,58,0.00,,---,0.00,VWS V14.01,2013-01-05 18:27:00,
2013-01-05 13:32:00,34.1,20.9,30.09,SW,215,7.3,7.9,58,0.00,,---,0.00,VWS V14.01,2013-01-05 18:32:00,
2013-01-05 13:37:00,34.1,20.9,30.09,South,170,4.0,7.3,58,0.00,,---,0.00,VWS V14.01,2013-01-05 18:37:00,
2013-01-05 13:43:00,34.1,20.9,30.09,South,170,8.6,8.6,58,0.00,,---,0.00,VWS V14.01,2013-01-05 18:43:00,
2013-01-05 13:48:00,34.3,21.0,30.09,SW,215,5.0,6.0,58,0.00,,---,0.00,VWS V14.01,2013-01-05 18:48:00,
2013-01-05 13:53:00,34.5,20.8,30.09,SW,215,8.6,8.6,57,0.00,,---,0.00,VWS V14.01,2013-01-05 18:53:00,
2013-01-05 13:58:00,34.8,21.1,30.09,SW,215,4.3,5.6,57,0.00,,---,0.00,VWS V14.01,2013-01-05 18:58:00,
2013-01-05 14:03:00,35.2,21.5,30.09,SW,215,3.6,8.3,57,0.00,,---,0.00,VWS V14.01,2013-01-05 19:03:00,
2013-01-05 14:08:00,35.2,21.5,30.09,South,170,8.6,8.9,57,0.00,,---,0.00,VWS V14.01,2013-01-05 19:08:00,
2013-01-05 14:13:00,35.0,21.3,30.09,SW,215,4.3,4.3,57,0.00,,---,0.00,VWS V14.01,2013-01-05 19:13:00,
2013-01-05 14:18:00,35.2,21.5,30.06,SE,125,5.3,5.3,57,0.00,,---,0.00,VWS V14.01,2013-01-05 19:18:00,
2013-01-05 14:23:00,35.4,21.7,30.06,SW,215,3.6,7.9,57,0.00,,---,0.00,VWS V14.01,2013-01-05 19:23:00,
2013-01-05 14:28:00,35.4,21.7,30.06,South,170,4.3,4.3,57,0.00,,---,0.00,VWS V14.01,2013-01-05 19:28:00,
2013-01-05 14:33:00,35.7,22.0,30.06,WSW,238,3.6,4.0,57,0.00,,---,0.00,VWS V14.01,2013-01-05 19:33:00,
2013-01-05 14:38:00,35.7,22.0,30.06,South,170,3.3,5.0,57,0.00,,---,0.00,VWS V14.01,2013-01-05 19:38:00,
2013-01-05 14:43:00,35.7,22.0,30.06,SW,215,4.6,4.6,57,0.00,,---,0.00,VWS V14.01,2013-01-05 19:43:00,
2013-01-05 14:48:00,36.8,22.6,30.06,SE,125,4.0,4.0,56,0.00,,---,0.00,VWS V14.01,2013-01-05 19:48:00,
2013-01-05 14:53:00,36.8,22.6,30.06,South,170,8.6,8.6,56,0.00,,---,0.00,VWS V14.01,2013-01-05 19:53:00,
2013-01-05 14:58:00,36.8,22.6,30.06,West,260,4.0,8.9,56,0.00,,---,0.00,VWS V14.01,2013-01-05 19:58:00,
2013-01-05 15:03:00,36.8,22.6,30.06,SW,215,6.0,12.9,56,0.00,,---,0.00,VWS V14.01,2013-01-05 20:03:00,
2013-01-05 15:08:00,36.8,22.6,30.06,SW,215,12.6,12.6,56,0.00,,---,0.00,VWS V14.01,2013-01-05 20:08:00,
2013-01-05 15:13:00,35.4,21.2,30.06,South,170,8.6,8.6,56,0.00,,---,0.00,VWS V14.01,2013-01-05 20:13:00,
2013-01-05 15:18:00,35.2,21.1,30.06,South,170,7.9,7.9,56,0.00,,---,0.00,VWS V14.01,2013-01-05 20:18:00,
2013-01-05 15:23:00,35.2,21.1,30.06,South,170,7.9,7.9,56,0.00,,---,0.00,VWS V14.01,2013-01-05 20:23:00,
2013-01-05 15:28:00,35.0,20.9,30.06,SW,215,4.3,7.9,56,0.00,,---,0.00,VWS V14.01,2013-01-05 20:28:00,
2013-01-05 15:33:00,35.0,20.9,30.06,SW,215,4.0,4.3,56,0.00,,---,0.00,VWS V14.01,2013-01-05 20:33:00,
2013-01-05 15:39:00,35.0,20.9,30.06,SW,215,14.2,14.2,56,0.00,,---,0.00,VWS V14.01,2013-01-05 20:39:00,
2013-01-05 15:44:00,35.0,21.3,30.03,SW,215,14.2,14.2,57,0.00,,---,0.00,VWS V14.01,2013-01-05 20:44:00,
2013-01-05 15:49:00,35.0,21.3,30.03,SW,215,8.6,8.6,57,0.00,,---,0.00,VWS V14.01,2013-01-05 20:49:00,
2013-01-05 15:54:00,34.8,21.1,30.03,SW,215,6.3,6.3,57,0.00,,---,0.00,VWS V14.01,2013-01-05 20:54:00,
2013-01-05 15:59:00,34.8,21.1,30.03,SW,215,3.3,6.3,57,0.00,,---,0.00,VWS V14.01,2013-01-05 20:59:00,
2013-01-05 16:04:00,34.8,21.1,30.03,SW,215,3.3,3.3,57,0.00,,---,0.00,VWS V14.01,2013-01-05 21:04:00,
2013-01-05 16:09:00,34.8,21.6,30.03,SW,215,3.3,3.3,58,0.00,,---,0.00,VWS V14.01,2013-01-05 21:09:00,
2013-01-05 16:14:00,34.8,21.6,30.03,SW,215,3.3,3.3,58,0.00,,---,0.00,VWS V14.01,2013-01-05 21:14:00,
2013-01-05 16:19:00,34.5,21.2,30.03,SW,215,3.3,3.3,58,0.00,,---,0.00,VWS V14.01,2013-01-05 21:19:00,
2013-01-05 16:24:00,34.3,21.0,30.03,SW,215,3.3,3.3,58,0.00,,---,0.00,VWS V14.01,2013-01-05 21:24:00,
2013-01-05 16:29:00,34.3,21.0,30.06,SW,215,6.0,6.0,58,0.00,,---,0.00,VWS V14.01,2013-01-05 21:29:00,
2013-01-05 16:34:00,33.9,21.1,30.06,SW,215,6.0,6.0,59,0.00,,---,0.00,VWS V14.01,2013-01-05 21:34:00,
2013-01-05 16:39:00,33.9,21.1,30.06,SW,215,6.0,6.0,59,0.00,,---,0.00,VWS V14.01,2013-01-05 21:39:00,
2013-01-05 16:44:00,33.9,21.1,30.03,SW,215,6.0,6.0,59,0.00,,---,0.00,VWS V14.01,2013-01-05 21:44:00,
2013-01-05 16:49:00,33.7,21.0,30.03,SE,125,6.3,6.3,59,0.00,,---,0.00,VWS V14.01,2013-01-05 21:49:00,
2013-01-05 16:54:00,33.4,20.6,30.03,SE,125,6.3,6.3,59,0.00,,---,0.00,VWS V14.01,2013-01-05 21:54:00,
2013-01-05 16:59:00,33.4,20.6,30.03,SE,125,6.3,6.3,59,0.00,,---,0.00,VWS V14.01,2013-01-05 21:59:00,
2013-01-05 17:04:00,33.4,20.6,30.03,SW,215,8.6,8.6,59,0.00,,---,0.00,VWS V14.01,2013-01-05 22:04:00,
2013-01-05 17:09:00,33.4,20.6,30.03,WSW,238,11.9,11.9,59,0.00,,---,0.00,VWS V14.01,2013-01-05 22:09:00,
2013-01-05 17:14:00,33.2,20.4,30.03,WSW,238,11.9,11.9,59,0.00,,---,0.00,VWS V14.01,2013-01-05 22:14:00,
2013-01-05 17:20:00,33.0,20.7,30.03,SW,215,7.9,7.9,60,0.00,,---,0.00,VWS V14.01,2013-01-05 22:20:00,
2013-01-05 17:25:00,32.8,20.5,30.03,SW,215,7.9,7.9,60,0.00,,---,0.00,VWS V14.01,2013-01-05 22:25:00,
2013-01-05 17:30:00,32.8,20.5,30.03,SW,215,4.0,4.0,60,0.00,,---,0.00,VWS V14.01,2013-01-05 22:30:00,
2013-01-05 17:35:00,32.5,20.1,30.03,SW,215,4.0,4.0,60,0.00,,---,0.00,VWS V14.01,2013-01-05 22:35:00,
2013-01-05 17:40:00,32.5,20.5,30.03,SW,215,7.9,7.9,61,0.00,,---,0.00,VWS V14.01,2013-01-05 22:40:00,
2013-01-05 17:45:00,32.3,20.4,30.03,SW,215,7.9,7.9,61,0.00,,---,0.00,VWS V14.01,2013-01-05 22:45:00,
2013-01-05 17:50:00,32.3,20.4,30.03,SW,215,7.9,7.9,61,0.00,,---,0.00,VWS V14.01,2013-01-05 22:50:00,
2013-01-05 17:55:00,32.1,20.6,30.03,SW,215,7.9,7.9,62,0.00,,---,0.00,VWS V14.01,2013-01-05 22:55:00,
2013-01-05 18:00:00,32.1,20.6,30.03,SW,215,13.6,13.6,62,0.00,,---,0.00,VWS V14.01,2013-01-05 23:00:00,
2013-01-05 18:05:00,32.1,21.0,30.03,SW,215,4.6,13.6,63,0.00,,---,0.00,VWS V14.01,2013-01-05 23:05:00,
2013-01-05 18:10:00,32.1,21.0,30.03,SW,215,10.9,10.9,63,0.00,,---,0.00,VWS V14.01,2013-01-05 23:10:00,
2013-01-05 18:15:00,32.1,21.3,30.03,West,260,6.0,9.6,64,0.00,,---,0.00,VWS V14.01,2013-01-05 23:15:00,
2013-01-05 18:20:00,31.8,22.1,30.03,SW,215,10.3,10.3,67,0.00,,---,0.00,VWS V14.01,2013-01-05 23:20:00,
2013-01-05 18:25:00,31.4,22.4,30.03,South,170,6.0,6.0,69,0.00,,---,0.00,VWS V14.01,2013-01-05 23:25:00,
2013-01-05 18:30:00,31.2,22.9,30.03,South,170,4.3,7.3,71,0.00,,---,0.00,VWS V14.01,2013-01-05 23:30:00,
2013-01-05 18:35:00,31.0,23.1,30.03,SW,215,4.3,5.0,72,0.00,,---,0.00,VWS V14.01,2013-01-05 23:35:00,
2013-01-05 18:40:00,31.0,23.4,30.03,South,170,5.6,6.3,73,0.00,,---,0.00,VWS V14.01,2013-01-05 23:40:00,
2013-01-05 18:45:00,31.0,23.7,30.03,SW,215,3.0,7.3,74,0.00,,---,0.00,VWS V14.01,2013-01-05 23:45:00,
2013-01-05 18:50:00,30.9,23.9,30.03,SW,215,4.6,4.6,75,0.00,,---,0.00,VWS V14.01,2013-01-05 23:50:00,
2013-01-05 18:55:00,30.9,23.9,30.03,SW,215,6.0,6.0,75,0.00,,---,0.00,VWS V14.01,2013-01-05 23:55:00,
2013-01-05 19:00:00,30.9,24.2,30.03,SW,215,3.3,5.3,76,0.00,,---,0.00,VWS V14.01,2013-01-06 00:00:00,
2013-01-05 19:05:00,30.9,24.5,30.03,SW,215,4.3,5.6,77,0.00,,---,0.00,VWS V14.01,2013-01-06 00:05:00,
2013-01-05 19:10:00,30.9,24.2,30.03,South,170,7.0,7.0,76,0.00,,---,0.00,VWS V14.01,2013-01-06 00:10:00,
2013-01-05 19:15:00,30.9,24.8,30.03,WSW,238,3.0,4.0,78,0.00,,---,0.00,VWS V14.01,2013-01-06 00:15:00,
2013-01-05 19:21:00,30.7,24.6,30.03,South,170,2.0,7.3,78,0.00,,---,0.00,VWS V14.01,2013-01-06 00:21:00,
2013-01-05 19:26:00,30.7,25.5,30.03,South,170,4.0,4.0,81,0.00,,---,0.00,VWS V14.01,2013-01-06 00:26:00,
2013-01-05 19:31:00,30.7,25.0,30.03,SW,215,6.3,6.3,79,0.00,,---,0.00,VWS V14.01,2013-01-06 00:31:00,
2013-01-05 19:36:00,30.7,25.2,30.03,SW,215,3.0,5.3,80,0.00,,---,0.00,VWS V14.01,2013-01-06 00:36:00,
2013-01-05 19:41:00,30.7,25.2,30.03,West,260,2.3,4.0,80,0.00,,---,0.00,VWS V14.01,2013-01-06 00:41:00,
2013-01-05 19:46:00,30.9,25.4,30.03,South,170,9.6,9.6,80,0.00,,---,0.00,VWS V14.01,2013-01-06 00:46:00,
2013-01-05 19:51:00,30.9,26.0,30.03,SW,215,4.0,8.6,82,0.00,,---,0.00,VWS V14.01,2013-01-06 00:51:00,
2013-01-05 19:56:00,30.9,25.7,30.03,SW,215,1.3,1.3,81,0.00,,---,0.00,VWS V14.01,2013-01-06 00:56:00,
2013-01-05 20:01:00,30.9,25.7,30.03,SW,215,4.0,5.3,81,0.00,,---,0.00,VWS V14.01,2013-01-06 01:01:00,
2013-01-05 20:06:00,30.9,26.0,30.03,East,80,4.3,4.3,82,0.00,,---,0.00,VWS V14.01,2013-01-06 01:06:00,
2013-01-05 20:11:00,30.9,26.6,30.03,South,170,9.3,9.3,84,0.00,,---,0.00,VWS V14.01,2013-01-06 01:11:00,
2013-01-05 20:16:00,30.9,26.3,30.03,SW,215,4.0,6.0,83,0.00,,---,0.00,VWS V14.01,2013-01-06 01:16:00,
2013-01-05 20:21:00,30.9,26.3,30.03,South,170,3.0,3.0,83,0.00,,---,0.00,VWS V14.01,2013-01-06 01:21:00,
2013-01-05 20:26:00,30.9,26.3,30.03,SE,125,6.3,6.3,83,0.00,,---,0.00,VWS V14.01,2013-01-06 01:26:00,
2013-01-05 20:31:00,31.0,27.1,30.00,SW,215,5.3,5.3,85,0.00,,---,0.00,VWS V14.01,2013-01-06 01:31:00,
2013-01-05 20:36:00,30.9,26.9,30.00,South,170,5.6,5.6,85,0.00,,---,0.00,VWS V14.01,2013-01-06 01:36:00,
2013-01-05 20:41:00,30.9,26.9,30.00,South,170,5.6,5.6,85,0.00,,---,0.00,VWS V14.01,2013-01-06 01:41:00,
2013-01-05 20:46:00,30.9,27.2,30.00,SSE,148,11.9,11.9,86,0.00,,---,0.00,VWS V14.01,2013-01-06 01:46:00,
2013-01-05 20:51:00,30.9,27.2,30.00,South,170,8.3,8.3,86,0.00,,---,0.00,VWS V14.01,2013-01-06 01:51:00,
2013-01-05 20:56:00,30.9,27.2,30.00,SW,215,4.6,4.6,86,0.00,,---,0.00,VWS V14.01,2013-01-06 01:56:00,
2013-01-05 21:01:00,30.9,27.2,30.00,South,170,4.3,5.6,86,0.00,,---,0.00,VWS V14.01,2013-01-06 02:01:00,
2013-01-05 21:06:00,31.0,27.1,30.00,South,170,5.0,5.0,85,0.00,,---,0.00,VWS V14.01,2013-01-06 02:06:00,
2013-01-05 21:11:00,31.0,27.1,30.00,SW,215,2.3,4.3,85,0.00,,---,0.00,VWS V14.01,2013-01-06 02:11:00,
2013-01-05 21:16:00,31.0,27.1,30.00,SW,215,5.3,5.3,85,0.00,,---,0.00,VWS V14.01,2013-01-06 02:16:00,
2013-01-05 21:22:00,31.0,27.4,30.00,SE,125,4.6,9.6,86,0.00,,---,0.00,VWS V14.01,2013-01-06 02:22:00,
2013-01-05 21:27:00,31.0,27.4,30.00,ESE,102,3.0,3.0,86,0.00,,---,0.00,VWS V14.01,2013-01-06 02:27:00,
2013-01-05 21:32:00,31.0,27.4,30.00,SSE,148,8.3,8.3,86,0.00,,---,0.00,VWS V14.01,2013-01-06 02:32:00,
2013-01-05 21:37:00,31.0,27.4,30.00,North,350,3.0,7.3,86,0.00,,---,0.00,VWS V14.01,2013-01-06 02:37:00,
2013-01-05 21:42:00,31.0,27.4,30.00,West,260,7.9,7.9,86,0.00,,---,0.00,VWS V14.01,2013-01-06 02:42:00,
2013-01-05 21:47:00,31.2,27.8,30.00,South,170,5.0,5.0,87,0.00,,---,0.00,VWS V14.01,2013-01-06 02:47:00,
2013-01-05 21:52:00,31.2,27.8,30.00,South,170,4.6,7.9,87,0.00,,---,0.00,VWS V14.01,2013-01-06 02:52:00,
2013-01-05 21:57:00,31.4,28.3,30.00,SW,215,10.9,10.9,88,0.00,,---,0.00,VWS V14.01,2013-01-06 02:57:00,
2013-01-05 22:02:00,31.4,28.3,30.00,South,170,5.0,5.0,88,0.00,,---,0.00,VWS V14.01,2013-01-06 03:02:00,
2013-01-05 22:07:00,31.4,28.0,30.00,SW,215,7.3,7.9,87,0.00,,---,0.00,VWS V14.01,2013-01-06 03:07:00,
2013-01-05 22:12:00,31.6,28.4,30.00,ESE,102,8.9,8.9,88,0.00,,---,0.00,VWS V14.01,2013-01-06 03:12:00,
2013-01-05 22:17:00,31.6,28.4,30.00,SW,215,7.3,8.9,88,0.00,,---,0.00,VWS V14.01,2013-01-06 03:17:00,
2013-01-05 22:22:00,31.6,28.7,30.00,SW,215,7.3,7.3,89,0.00,,---,0.00,VWS V14.01,2013-01-06 03:22:00,
2013-01-05 22:27:00,31.6,28.7,30.00,SW,215,4.3,12.9,89,0.00,,---,0.00,VWS V14.01,2013-01-06 03:27:00,
2013-01-05 22:32:00,31.6,28.7,29.97,SW,215,7.3,7.3,89,0.00,,---,0.00,VWS V14.01,2013-01-06 03:32:00,
2013-01-05 22:37:00,31.8,28.9,29.97,SW,215,4.0,5.0,89,0.00,,---,0.00,VWS V14.01,2013-01-06 03:37:00,
2013-01-05 22:42:00,31.8,28.9,29.97,SW,215,7.3,7.3,89,0.00,,---,0.00,VWS V14.01,2013-01-06 03:42:00,
2013-01-05 22:47:00,31.9,29.1,29.97,SW,215,4.6,4.6,89,0.00,,---,0.00,VWS V14.01,2013-01-06 03:47:00,
2013-01-05 22:52:00,31.9,29.1,29.97,South,170,9.3,9.3,89,0.00,,---,0.00,VWS V14.01,2013-01-06 03:52:00,
2013-01-05 22:57:00,31.9,29.1,29.97,NW,305,7.3,7.3,89,0.00,,---,0.00,VWS V14.01,2013-01-06 03:57:00,
2013-01-05 23:03:00,32.1,29.2,29.97,NW,305,7.3,7.3,89,0.00,,---,0.00,VWS V14.01,2013-01-06 04:03:00,
2013-01-05 23:08:00,32.1,29.2,29.97,South,170,7.3,7.3,89,0.00,,---,0.00,VWS V14.01,2013-01-06 04:08:00,
2013-01-05 23:13:00,32.1,29.2,29.97,South,170,7.3,7.3,89,0.00,,---,0.00,VWS V14.01,2013-01-06 04:13:00,
2013-01-05 23:18:00,32.3,29.4,29.97,SW,215,7.9,7.9,89,0.00,,---,0.00,VWS V14.01,2013-01-06 04:18:00,
2013-01-05 23:23:00,32.3,29.4,29.97,SW,215,6.3,6.3,89,0.00,,---,0.00,VWS V14.01,2013-01-06 04:23:00,
2013-01-05 23:28:00,32.5,29.3,29.97,SW,215,15.2,15.2,88,0.00,,---,0.00,VWS V14.01,2013-01-06 04:28:00,
2013-01-05 23:33:00,32.5,29.3,29.97,WSW,238,3.6,8.9,88,0.00,,---,0.00,VWS V14.01,2013-01-06 04:33:00,
2013-01-05 23:38:00,32.5,29.3,29.97,SW,215,7.3,9.3,88,0.00,,---,0.00,VWS V14.01,2013-01-06 04:38:00,
2013-01-05 23:43:00,32.5,29.3,29.97,SW,215,3.0,5.3,88,0.00,,---,0.00,VWS V14.01,2013-01-06 04:43:00,
2013-01-05 23:48:00,32.5,29.0,29.97,SW,215,9.3,9.3,87,0.00,,---,0.00,VWS V14.01,2013-01-06 04:48:00,
2013-01-05 23:53:00,32.5,29.0,29.97,South,170,7.0,7.0,87,0.00,,---,0.00,VWS V14.01,2013-01-06 04:53:00,
2013-01-05 23:58:00,32.5,29.0,29.97,SW,215,6.0,6.0,87,0.00,,---,0.00,VWS V14.01,2013-01-06 04:58:00,